Stazioni METAR vicine

 

LIRQ - Firenze/Peretola, Italy
Distance from station: S 24km
Dati ricevuti: 21/05/2018 06:20
Poco nuvoloso
Poco nuvoloso
 Vento Da varies
Vento: varies 6 km/h
Temperatura: 15°C
P.to Rugiada: 12°C
Umidità: 82%
Barometro: 1013 hPa
Clouds: Poco nuvoloso
Visibility: 10 km
Cloud details: Poco nuvoloso 2438 m
2018/05/21 04:20 LIRQ 210420Z VRB03KT 9999 FEW080 15/12 Q1013
LIVC - Cimone Mountain, Italy
Distance from station: O-NO 43km
Dati ricevuti: 21/05/2018 05:55
Nebbia
Nebbia
 Vento Da E
Vento: E 33 km/h
Temperatura: 3°C
Temperatura Vento: -3°C
P.to Rugiada: 3°C
Umidità: 100%
Barometro: 1019 hPa
Meteo: Nebbia
Visibility: 0 km
2018/05/21 03:55 LIVC 210355Z 09018KT 0000 FG VV/// 03/03 Q1019 RMK MON INVIS VAL INVIS VIS MIN 0000
 
LIPE - Bologna/Borgo (a, Italy
Distance from station: N-NE 60km
Dati ricevuti: 21/05/2018 06:20
Sereno
Sereno
 Vento Da O
Vento: O 13 km/h
Temperatura: 16°C
P.to Rugiada: 13°C
Umidità: 83%
Barometro: 1015 hPa
Meteo: Sereno
Visibility: greater than 10 km
2018/05/21 04:20 LIPE 210420Z 28007KT CAVOK 16/13 Q1015
LIRP - Pisa (civ/It-Afb, Italy
Distance from station: O-SO 72km
Dati ricevuti: 21/05/2018 06:15
Sereno
Sereno
 Vento Da E-SE
Vento: E-SE 6 km/h
Temperatura: 14°C
P.to Rugiada: 14°C
Umidità: 100%
Barometro: 1013 hPa
Meteo: Sereno
Visibility: greater than 10 km
2018/05/21 04:15 LIRP 210415Z 12003KT CAVOK 14/14 Q1013 NOSIG
 
LIPK - Forli (civ/It-Af, Italy
Distance from station: E-NE 78km
Dati ricevuti: 01/01/1970 01:00
NOT Current
unable to load LIPK data RC=404 Not Found
unable to load LIPK data RC=404 Not Found
 
LIQW - Sarzana/Luni, Italy
Distance from station: O 94km
Dati ricevuti: 18/05/2018 11:55
NOT Current
Poco nuvoloso
Poco nuvoloso
 Vento Da SE
Vento: SE 9 km/h
Temperatura: 21°C
P.to Rugiada: 15°C
Umidità: 69%
Barometro: 1016 hPa
Clouds: Poco nuvoloso
Visibility: 10 km
Cloud details: Poco nuvoloso 914 m
2018/05/18 09:55 LIQW 180955Z 14005KT 9999 FEW030 21/15 Q1016
 
LIPC - Cervia (it-Afb), Italy
Distance from station: E-NE 96km
Dati ricevuti: 21/05/2018 05:55
Sereno
Sereno
 Vento Da O
Vento: O 15 km/h
Temperatura: 14°C
P.to Rugiada: 13°C
Umidità: 94%
Barometro: 1014 hPa
Meteo: Sereno
Visibility: greater than 10 km
2018/05/21 03:55 LIPC 210355Z 28008KT CAVOK 14/13 Q1014
LIPF - Ferrara (aut), Italy
Distance from station: N-NE 99km
Dati ricevuti: 20/05/2018 19:55
NOT Current
Sereno
Sereno
 Vento Da O
Vento: O 4 km/h
Temperatura: 24°C
P.to Rugiada: 13°C
Umidità: 50%
Barometro: 1013 hPa
Meteo: Sereno
Visibility: greater than 10 km
2018/05/20 17:55 LIPF 201755Z 27002KT CAVOK 24/13 Q1013